sensor_id;sensor_type;location;lat;lon;timestamp;P1;durP1;ratioP1;P2;durP2;ratioP2
18503;SDS011;9381;54.244;10.074;2023-09-07T00:04:24;7.30;;;6.50;;
18503;SDS011;9381;54.244;10.074;2023-09-07T00:09:24;8.45;;;6.43;;
18503;SDS011;9381;54.244;10.074;2023-09-07T00:14:26;6.73;;;6.03;;
18503;SDS011;9381;54.244;10.074;2023-09-07T00:19:27;7.23;;;6.53;;
18503;SDS011;9381;54.244;10.074;2023-09-07T00:24:27;6.43;;;5.70;;
18503;SDS011;9381;54.244;10.074;2023-09-07T00:29:28;7.17;;;5.80;;
18503;SDS011;9381;54.244;10.074;2023-09-07T00:34:28;7.17;;;6.47;;
18503;SDS011;9381;54.244;10.074;2023-09-07T00:39:28;8.07;;;5.80;;
18503;SDS011;9381;54.244;10.074;2023-09-07T00:44:29;8.13;;;7.30;;
18503;SDS011;9381;54.244;10.074;2023-09-07T00:49:29;7.57;;;6.57;;
18503;SDS011;9381;54.244;10.074;2023-09-07T00:54:29;7.80;;;7.00;;
18503;SDS011;9381;54.244;10.074;2023-09-07T00:59:31;8.60;;;7.30;;
18503;SDS011;9381;54.244;10.074;2023-09-07T01:04:32;8.87;;;6.97;;
18503;SDS011;9381;54.244;10.074;2023-09-07T01:09:33;9.40;;;6.90;;
18503;SDS011;9381;54.244;10.074;2023-09-07T01:14:35;8.27;;;6.77;;
18503;SDS011;9381;54.244;10.074;2023-09-07T01:19:36;7.73;;;7.03;;
18503;SDS011;9381;54.244;10.074;2023-09-07T01:24:37;8.20;;;7.40;;
18503;SDS011;9381;54.244;10.074;2023-09-07T01:29:38;7.00;;;6.40;;
18503;SDS011;9381;54.244;10.074;2023-09-07T01:34:40;7.93;;;7.23;;
18503;SDS011;9381;54.244;10.074;2023-09-07T01:39:40;8.80;;;7.53;;
18503;SDS011;9381;54.244;10.074;2023-09-07T01:44:40;10.50;;;7.77;;
18503;SDS011;9381;54.244;10.074;2023-09-07T01:49:40;9.65;;;7.75;;
18503;SDS011;9381;54.244;10.074;2023-09-07T01:54:41;11.07;;;7.38;;
18503;SDS011;9381;54.244;10.074;2023-09-07T01:59:41;7.73;;;6.90;;
18503;SDS011;9381;54.244;10.074;2023-09-07T02:04:41;8.65;;;7.75;;
18503;SDS011;9381;54.244;10.074;2023-09-07T02:09:45;9.57;;;8.40;;
18503;SDS011;9381;54.244;10.074;2023-09-07T02:14:46;8.30;;;7.50;;
18503;SDS011;9381;54.244;10.074;2023-09-07T02:19:46;8.50;;;7.57;;
18503;SDS011;9381;54.244;10.074;2023-09-07T02:24:46;8.10;;;7.32;;
18503;SDS011;9381;54.244;10.074;2023-09-07T02:29:47;9.10;;;7.67;;
18503;SDS011;9381;54.244;10.074;2023-09-07T02:34:47;9.25;;;7.25;;
18503;SDS011;9381;54.244;10.074;2023-09-07T02:39:48;8.00;;;6.67;;
18503;SDS011;9381;54.244;10.074;2023-09-07T02:44:48;8.10;;;6.83;;
18503;SDS011;9381;54.244;10.074;2023-09-07T02:49:49;8.57;;;6.53;;
18503;SDS011;9381;54.244;10.074;2023-09-07T02:54:49;8.73;;;6.40;;
18503;SDS011;9381;54.244;10.074;2023-09-07T02:59:49;7.68;;;6.82;;
18503;SDS011;9381;54.244;10.074;2023-09-07T03:04:53;7.67;;;6.87;;
18503;SDS011;9381;54.244;10.074;2023-09-07T03:09:54;6.87;;;6.30;;
18503;SDS011;9381;54.244;10.074;2023-09-07T03:14:56;6.73;;;6.07;;
18503;SDS011;9381;54.244;10.074;2023-09-07T03:19:56;7.07;;;6.23;;
18503;SDS011;9381;54.244;10.074;2023-09-07T03:24:57;8.30;;;6.32;;
18503;SDS011;9381;54.244;10.074;2023-09-07T03:29:57;7.40;;;6.70;;
18503;SDS011;9381;54.244;10.074;2023-09-07T03:34:57;6.68;;;6.07;;
18503;SDS011;9381;54.244;10.074;2023-09-07T03:39:58;6.53;;;5.93;;
18503;SDS011;9381;54.244;10.074;2023-09-07T03:44:58;7.97;;;6.53;;
18503;SDS011;9381;54.244;10.074;2023-09-07T03:49:59;7.07;;;6.40;;
18503;SDS011;9381;54.244;10.074;2023-09-07T03:55:00;8.03;;;6.47;;
18503;SDS011;9381;54.244;10.074;2023-09-07T04:00:01;7.90;;;6.53;;
18503;SDS011;9381;54.244;10.074;2023-09-07T04:05:07;7.07;;;6.37;;
18503;SDS011;9381;54.244;10.074;2023-09-07T04:10:07;7.23;;;6.53;;
18503;SDS011;9381;54.244;10.074;2023-09-07T04:15:08;8.77;;;7.20;;
18503;SDS011;9381;54.244;10.074;2023-09-07T04:20:09;8.60;;;7.73;;
18503;SDS011;9381;54.244;10.074;2023-09-07T04:25:13;9.53;;;7.17;;
18503;SDS011;9381;54.244;10.074;2023-09-07T04:30:13;8.18;;;7.18;;
18503;SDS011;9381;54.244;10.074;2023-09-07T04:35:13;7.70;;;6.90;;
18503;SDS011;9381;54.244;10.074;2023-09-07T04:40:14;8.90;;;6.70;;
18503;SDS011;9381;54.244;10.074;2023-09-07T04:45:14;7.78;;;6.90;;
18503;SDS011;9381;54.244;10.074;2023-09-07T04:50:14;8.40;;;7.60;;
18503;SDS011;9381;54.244;10.074;2023-09-07T04:55:15;9.10;;;6.53;;
18503;SDS011;9381;54.244;10.074;2023-09-07T05:00:15;8.27;;;6.72;;
18503;SDS011;9381;54.244;10.074;2023-09-07T05:05:16;7.00;;;6.30;;
18503;SDS011;9381;54.244;10.074;2023-09-07T05:10:16;7.90;;;6.03;;
18503;SDS011;9381;54.244;10.074;2023-09-07T05:15:17;7.53;;;5.80;;
18503;SDS011;9381;54.244;10.074;2023-09-07T05:20:17;6.83;;;6.23;;
18503;SDS011;9381;54.244;10.074;2023-09-07T05:25:18;7.13;;;6.40;;
18503;SDS011;9381;54.244;10.074;2023-09-07T05:30:20;6.97;;;6.37;;
18503;SDS011;9381;54.244;10.074;2023-09-07T05:35:20;8.50;;;7.53;;
18503;SDS011;9381;54.244;10.074;2023-09-07T05:40:20;9.97;;;8.63;;
18503;SDS011;9381;54.244;10.074;2023-09-07T05:45:21;10.90;;;9.20;;
18503;SDS011;9381;54.244;10.074;2023-09-07T05:50:21;9.70;;;8.70;;
18503;SDS011;9381;54.244;10.074;2023-09-07T05:55:22;8.83;;;7.77;;
18503;SDS011;9381;54.244;10.074;2023-09-07T06:00:22;9.60;;;8.60;;
18503;SDS011;9381;54.244;10.074;2023-09-07T06:05:23;10.57;;;8.53;;
18503;SDS011;9381;54.244;10.074;2023-09-07T06:10:27;11.10;;;10.00;;
18503;SDS011;9381;54.244;10.074;2023-09-07T06:15:29;10.40;;;9.00;;
18503;SDS011;9381;54.244;10.074;2023-09-07T06:20:30;9.20;;;8.20;;
18503;SDS011;9381;54.244;10.074;2023-09-07T06:25:30;9.80;;;8.80;;
18503;SDS011;9381;54.244;10.074;2023-09-07T06:30:30;9.23;;;8.30;;
18503;SDS011;9381;54.244;10.074;2023-09-07T06:35:31;8.60;;;7.68;;
18503;SDS011;9381;54.244;10.074;2023-09-07T06:40:31;12.50;;;9.10;;
18503;SDS011;9381;54.244;10.074;2023-09-07T06:45:35;13.65;;;10.00;;
18503;SDS011;9381;54.244;10.074;2023-09-07T06:50:35;9.80;;;7.63;;
18503;SDS011;9381;54.244;10.074;2023-09-07T06:55:36;8.77;;;7.60;;
18503;SDS011;9381;54.244;10.074;2023-09-07T07:00:36;9.43;;;7.60;;
18503;SDS011;9381;54.244;10.074;2023-09-07T07:05:37;9.32;;;7.70;;
18503;SDS011;9381;54.244;10.074;2023-09-07T07:10:37;8.93;;;7.67;;
18503;SDS011;9381;54.244;10.074;2023-09-07T07:15:38;8.00;;;7.20;;
18503;SDS011;9381;54.244;10.074;2023-09-07T07:20:39;8.60;;;7.80;;
18503;SDS011;9381;54.244;10.074;2023-09-07T07:25:40;10.73;;;7.40;;
18503;SDS011;9381;54.244;10.074;2023-09-07T07:30:40;7.93;;;6.80;;
18503;SDS011;9381;54.244;10.074;2023-09-07T07:35:40;10.80;;;6.93;;
18503;SDS011;9381;54.244;10.074;2023-09-07T07:40:41;9.07;;;7.83;;
18503;SDS011;9381;54.244;10.074;2023-09-07T07:45:42;9.37;;;7.60;;
18503;SDS011;9381;54.244;10.074;2023-09-07T07:50:43;9.10;;;7.17;;
18503;SDS011;9381;54.244;10.074;2023-09-07T07:55:44;7.43;;;6.73;;
18503;SDS011;9381;54.244;10.074;2023-09-07T08:00:44;8.70;;;7.50;;
18503;SDS011;9381;54.244;10.074;2023-09-07T08:05:47;11.10;;;6.97;;
18503;SDS011;9381;54.244;10.074;2023-09-07T08:10:48;7.30;;;6.30;;
18503;SDS011;9381;54.244;10.074;2023-09-07T08:15:48;8.20;;;5.97;;
18503;SDS011;9381;54.244;10.074;2023-09-07T08:20:49;7.50;;;6.80;;
18503;SDS011;9381;54.244;10.074;2023-09-07T08:25:52;8.75;;;6.55;;
18503;SDS011;9381;54.244;10.074;2023-09-07T08:30:53;7.37;;;6.67;;
18503;SDS011;9381;54.244;10.074;2023-09-07T08:35:55;6.87;;;6.17;;
18503;SDS011;9381;54.244;10.074;2023-09-07T08:40:59;7.40;;;6.70;;
18503;SDS011;9381;54.244;10.074;2023-09-07T08:46:09;7.33;;;6.40;;
18503;SDS011;9381;54.244;10.074;2023-09-07T08:51:15;6.77;;;6.00;;
18503;SDS011;9381;54.244;10.074;2023-09-07T08:56:18;7.40;;;5.80;;
18503;SDS011;9381;54.244;10.074;2023-09-07T09:01:21;6.83;;;5.57;;
18503;SDS011;9381;54.244;10.074;2023-09-07T09:06:21;8.10;;;6.03;;
18503;SDS011;9381;54.244;10.074;2023-09-07T09:11:23;6.70;;;6.00;;
18503;SDS011;9381;54.244;10.074;2023-09-07T09:16:24;6.40;;;5.67;;
18503;SDS011;9381;54.244;10.074;2023-09-07T09:21:25;6.17;;;5.30;;
18503;SDS011;9381;54.244;10.074;2023-09-07T09:26:26;7.57;;;5.57;;
18503;SDS011;9381;54.244;10.074;2023-09-07T09:31:26;6.00;;;4.90;;
18503;SDS011;9381;54.244;10.074;2023-09-07T09:36:32;7.78;;;5.20;;
18503;SDS011;9381;54.244;10.074;2023-09-07T09:41:34;5.83;;;5.30;;
18503;SDS011;9381;54.244;10.074;2023-09-07T09:46:35;5.90;;;5.40;;
18503;SDS011;9381;54.244;10.074;2023-09-07T09:51:36;5.60;;;4.93;;
18503;SDS011;9381;54.244;10.074;2023-09-07T09:56:39;6.00;;;5.40;;
18503;SDS011;9381;54.244;10.074;2023-09-07T10:01:48;6.07;;;4.97;;
18503;SDS011;9381;54.244;10.074;2023-09-07T10:06:55;6.50;;;5.00;;
18503;SDS011;9381;54.244;10.074;2023-09-07T10:11:57;7.03;;;5.27;;
18503;SDS011;9381;54.244;10.074;2023-09-07T10:16:59;5.77;;;5.13;;
18503;SDS011;9381;54.244;10.074;2023-09-07T10:22:03;5.47;;;4.90;;
18503;SDS011;9381;54.244;10.074;2023-09-07T10:27:04;6.43;;;4.53;;
18503;SDS011;9381;54.244;10.074;2023-09-07T10:32:06;5.00;;;4.47;;
18503;SDS011;9381;54.244;10.074;2023-09-07T10:37:09;5.43;;;4.35;;
18503;SDS011;9381;54.244;10.074;2023-09-07T10:42:25;6.13;;;4.68;;
18503;SDS011;9381;54.244;10.074;2023-09-07T10:47:26;5.78;;;5.22;;
18503;SDS011;9381;54.244;10.074;2023-09-07T10:52:28;4.65;;;4.25;;
18503;SDS011;9381;54.244;10.074;2023-09-07T10:57:28;5.03;;;4.53;;
18503;SDS011;9381;54.244;10.074;2023-09-07T11:02:29;4.93;;;4.45;;
18503;SDS011;9381;54.244;10.074;2023-09-07T11:07:29;6.00;;;4.35;;
18503;SDS011;9381;54.244;10.074;2023-09-07T11:12:35;5.97;;;4.20;;
18503;SDS011;9381;54.244;10.074;2023-09-07T11:17:37;5.25;;;4.32;;
18503;SDS011;9381;54.244;10.074;2023-09-07T11:22:39;6.50;;;4.20;;
18503;SDS011;9381;54.244;10.074;2023-09-07T11:27:41;4.82;;;4.30;;
18503;SDS011;9381;54.244;10.074;2023-09-07T11:32:41;4.28;;;3.90;;
18503;SDS011;9381;54.244;10.074;2023-09-07T11:37:42;5.22;;;4.07;;
18503;SDS011;9381;54.244;10.074;2023-09-07T11:42:43;4.55;;;4.15;;
18503;SDS011;9381;54.244;10.074;2023-09-07T11:47:43;4.60;;;4.20;;
18503;SDS011;9381;54.244;10.074;2023-09-07T11:52:44;6.03;;;4.32;;
18503;SDS011;9381;54.244;10.074;2023-09-07T11:57:44;9.80;;;4.40;;
18503;SDS011;9381;54.244;10.074;2023-09-07T12:02:45;7.10;;;4.78;;
18503;SDS011;9381;54.244;10.074;2023-09-07T12:07:45;5.90;;;4.57;;
18503;SDS011;9381;54.244;10.074;2023-09-07T12:12:45;4.82;;;4.25;;
18503;SDS011;9381;54.244;10.074;2023-09-07T12:17:46;4.97;;;4.47;;
18503;SDS011;9381;54.244;10.074;2023-09-07T12:22:47;5.13;;;4.60;;
18503;SDS011;9381;54.244;10.074;2023-09-07T12:27:49;5.63;;;4.70;;
18503;SDS011;9381;54.244;10.074;2023-09-07T12:32:51;5.40;;;4.90;;
18503;SDS011;9381;54.244;10.074;2023-09-07T12:37:51;7.20;;;5.20;;
18503;SDS011;9381;54.244;10.074;2023-09-07T12:42:52;5.47;;;4.95;;
18503;SDS011;9381;54.244;10.074;2023-09-07T12:47:52;5.50;;;4.95;;
18503;SDS011;9381;54.244;10.074;2023-09-07T12:52:53;6.00;;;5.00;;
18503;SDS011;9381;54.244;10.074;2023-09-07T12:57:54;5.47;;;4.97;;
18503;SDS011;9381;54.244;10.074;2023-09-07T13:02:54;5.85;;;5.32;;
18503;SDS011;9381;54.244;10.074;2023-09-07T13:07:55;6.15;;;5.07;;
18503;SDS011;9381;54.244;10.074;2023-09-07T13:12:57;4.97;;;4.28;;
18503;SDS011;9381;54.244;10.074;2023-09-07T13:17:57;7.20;;;5.72;;
18503;SDS011;9381;54.244;10.074;2023-09-07T13:22:58;8.02;;;4.88;;
18503;SDS011;9381;54.244;10.074;2023-09-07T13:27:58;8.20;;;5.10;;
18503;SDS011;9381;54.244;10.074;2023-09-07T13:32:58;6.82;;;5.07;;
18503;SDS011;9381;54.244;10.074;2023-09-07T13:37:59;5.78;;;5.20;;
18503;SDS011;9381;54.244;10.074;2023-09-07T13:43:00;10.43;;;5.80;;
18503;SDS011;9381;54.244;10.074;2023-09-07T13:48:00;6.03;;;5.53;;
18503;SDS011;9381;54.244;10.074;2023-09-07T13:53:02;9.57;;;5.43;;
18503;SDS011;9381;54.244;10.074;2023-09-07T13:58:02;7.67;;;6.03;;
18503;SDS011;9381;54.244;10.074;2023-09-07T14:03:03;8.00;;;6.00;;
18503;SDS011;9381;54.244;10.074;2023-09-07T14:08:04;8.97;;;5.80;;
18503;SDS011;9381;54.244;10.074;2023-09-07T14:13:04;10.17;;;6.20;;
18503;SDS011;9381;54.244;10.074;2023-09-07T14:18:05;6.30;;;5.70;;
18503;SDS011;9381;54.244;10.074;2023-09-07T14:23:05;9.03;;;5.97;;
18503;SDS011;9381;54.244;10.074;2023-09-07T14:28:05;7.10;;;6.47;;
18503;SDS011;9381;54.244;10.074;2023-09-07T14:33:06;8.20;;;6.87;;
18503;SDS011;9381;54.244;10.074;2023-09-07T14:38:06;6.60;;;6.00;;
18503;SDS011;9381;54.244;10.074;2023-09-07T14:43:06;8.87;;;6.67;;
18503;SDS011;9381;54.244;10.074;2023-09-07T14:48:07;7.40;;;6.70;;
18503;SDS011;9381;54.244;10.074;2023-09-07T14:53:07;9.90;;;6.80;;
18503;SDS011;9381;54.244;10.074;2023-09-07T14:58:07;8.13;;;6.70;;
18503;SDS011;9381;54.244;10.074;2023-09-07T15:03:09;8.40;;;6.73;;
18503;SDS011;9381;54.244;10.074;2023-09-07T15:08:10;7.93;;;7.07;;
18503;SDS011;9381;54.244;10.074;2023-09-07T15:13:10;11.03;;;6.83;;
18503;SDS011;9381;54.244;10.074;2023-09-07T15:18:10;8.43;;;6.70;;
18503;SDS011;9381;54.244;10.074;2023-09-07T15:23:11;10.90;;;6.70;;
18503;SDS011;9381;54.244;10.074;2023-09-07T15:28:11;7.03;;;6.10;;
18503;SDS011;9381;54.244;10.074;2023-09-07T15:33:11;8.00;;;6.27;;
18503;SDS011;9381;54.244;10.074;2023-09-07T15:38:11;7.00;;;6.00;;
18503;SDS011;9381;54.244;10.074;2023-09-07T15:43:12;7.10;;;6.13;;
18503;SDS011;9381;54.244;10.074;2023-09-07T15:48:12;9.10;;;6.33;;
18503;SDS011;9381;54.244;10.074;2023-09-07T15:53:12;6.87;;;6.20;;
18503;SDS011;9381;54.244;10.074;2023-09-07T15:58:13;10.80;;;9.80;;
18503;SDS011;9381;54.244;10.074;2023-09-07T16:03:14;11.00;;;9.20;;
18503;SDS011;9381;54.244;10.074;2023-09-07T16:08:15;11.02;;;9.55;;
18503;SDS011;9381;54.244;10.074;2023-09-07T16:13:15;10.40;;;9.30;;
18503;SDS011;9381;54.244;10.074;2023-09-07T16:18:15;11.30;;;10.27;;
18503;SDS011;9381;54.244;10.074;2023-09-07T16:23:16;11.03;;;9.70;;
18503;SDS011;9381;54.244;10.074;2023-09-07T16:28:16;12.20;;;10.90;;
18503;SDS011;9381;54.244;10.074;2023-09-07T16:33:17;11.77;;;10.45;;
18503;SDS011;9381;54.244;10.074;2023-09-07T16:38:19;12.33;;;11.13;;
18503;SDS011;9381;54.244;10.074;2023-09-07T16:43:20;15.40;;;11.77;;
18503;SDS011;9381;54.244;10.074;2023-09-07T16:48:24;12.63;;;11.33;;
18503;SDS011;9381;54.244;10.074;2023-09-07T16:53:25;11.97;;;10.80;;
18503;SDS011;9381;54.244;10.074;2023-09-07T16:58:26;16.03;;;11.93;;
18503;SDS011;9381;54.244;10.074;2023-09-07T17:03:26;13.00;;;11.37;;
18503;SDS011;9381;54.244;10.074;2023-09-07T17:08:26;14.10;;;12.27;;
18503;SDS011;9381;54.244;10.074;2023-09-07T17:13:26;13.05;;;11.85;;
18503;SDS011;9381;54.244;10.074;2023-09-07T17:18:27;13.13;;;11.80;;
18503;SDS011;9381;54.244;10.074;2023-09-07T17:23:27;13.30;;;11.93;;
18503;SDS011;9381;54.244;10.074;2023-09-07T17:28:27;15.63;;;11.83;;
18503;SDS011;9381;54.244;10.074;2023-09-07T17:33:28;11.20;;;10.00;;
18503;SDS011;9381;54.244;10.074;2023-09-07T17:38:28;13.20;;;10.67;;
18503;SDS011;9381;54.244;10.074;2023-09-07T17:43:28;12.77;;;9.80;;
18503;SDS011;9381;54.244;10.074;2023-09-07T17:48:29;11.13;;;10.03;;
18503;SDS011;9381;54.244;10.074;2023-09-07T17:53:29;13.50;;;10.27;;
18503;SDS011;9381;54.244;10.074;2023-09-07T17:58:29;10.63;;;9.48;;
18503;SDS011;9381;54.244;10.074;2023-09-07T18:03:30;11.23;;;9.87;;
18503;SDS011;9381;54.244;10.074;2023-09-07T18:08:31;11.37;;;9.80;;
18503;SDS011;9381;54.244;10.074;2023-09-07T18:13:31;10.83;;;9.20;;
18503;SDS011;9381;54.244;10.074;2023-09-07T18:18:32;10.93;;;9.40;;
18503;SDS011;9381;54.244;10.074;2023-09-07T18:23:35;10.57;;;9.47;;
18503;SDS011;9381;54.244;10.074;2023-09-07T18:28:35;12.43;;;11.10;;
18503;SDS011;9381;54.244;10.074;2023-09-07T18:33:36;9.80;;;8.80;;
18503;SDS011;9381;54.244;10.074;2023-09-07T18:38:36;10.60;;;9.50;;
18503;SDS011;9381;54.244;10.074;2023-09-07T18:43:37;9.97;;;9.07;;
18503;SDS011;9381;54.244;10.074;2023-09-07T18:48:37;12.27;;;9.70;;
18503;SDS011;9381;54.244;10.074;2023-09-07T18:53:37;11.27;;;9.40;;
18503;SDS011;9381;54.244;10.074;2023-09-07T18:58:38;10.50;;;9.13;;
18503;SDS011;9381;54.244;10.074;2023-09-07T19:03:38;10.50;;;9.40;;
18503;SDS011;9381;54.244;10.074;2023-09-07T19:08:38;9.82;;;8.88;;
18503;SDS011;9381;54.244;10.074;2023-09-07T19:13:39;10.98;;;9.10;;
18503;SDS011;9381;54.244;10.074;2023-09-07T19:18:39;9.73;;;8.83;;
18503;SDS011;9381;54.244;10.074;2023-09-07T19:23:40;9.93;;;8.30;;
18503;SDS011;9381;54.244;10.074;2023-09-07T19:28:41;12.33;;;8.83;;
18503;SDS011;9381;54.244;10.074;2023-09-07T19:33:41;10.40;;;9.40;;
18503;SDS011;9381;54.244;10.074;2023-09-07T19:38:41;9.90;;;8.90;;
18503;SDS011;9381;54.244;10.074;2023-09-07T19:43:44;9.48;;;8.27;;
18503;SDS011;9381;54.244;10.074;2023-09-07T19:48:45;10.13;;;8.63;;
18503;SDS011;9381;54.244;10.074;2023-09-07T19:53:48;10.23;;;8.10;;
18503;SDS011;9381;54.244;10.074;2023-09-07T19:58:48;9.87;;;8.47;;
18503;SDS011;9381;54.244;10.074;2023-09-07T20:03:49;10.10;;;8.93;;
18503;SDS011;9381;54.244;10.074;2023-09-07T20:08:50;12.43;;;9.27;;
18503;SDS011;9381;54.244;10.074;2023-09-07T20:13:51;16.30;;;10.13;;
18503;SDS011;9381;54.244;10.074;2023-09-07T20:18:51;10.63;;;9.70;;
18503;SDS011;9381;54.244;10.074;2023-09-07T20:23:51;12.27;;;9.50;;
18503;SDS011;9381;54.244;10.074;2023-09-07T20:28:52;10.77;;;9.43;;
18503;SDS011;9381;54.244;10.074;2023-09-07T20:33:53;9.80;;;8.80;;
18503;SDS011;9381;54.244;10.074;2023-09-07T20:38:53;11.47;;;8.80;;
18503;SDS011;9381;54.244;10.074;2023-09-07T20:43:54;12.03;;;10.10;;
18503;SDS011;9381;54.244;10.074;2023-09-07T20:48:55;13.77;;;9.50;;
18503;SDS011;9381;54.244;10.074;2023-09-07T20:53:55;10.53;;;8.97;;
18503;SDS011;9381;54.244;10.074;2023-09-07T20:58:55;12.30;;;9.30;;
18503;SDS011;9381;54.244;10.074;2023-09-07T21:03:56;10.03;;;9.13;;
18503;SDS011;9381;54.244;10.074;2023-09-07T21:08:56;10.87;;;9.53;;
18503;SDS011;9381;54.244;10.074;2023-09-07T21:13:56;12.37;;;9.83;;
18503;SDS011;9381;54.244;10.074;2023-09-07T21:18:56;10.30;;;9.23;;
18503;SDS011;9381;54.244;10.074;2023-09-07T21:23:57;10.47;;;9.27;;
18503;SDS011;9381;54.244;10.074;2023-09-07T21:28:57;12.77;;;8.83;;
18503;SDS011;9381;54.244;10.074;2023-09-07T21:33:57;11.85;;;10.20;;
18503;SDS011;9381;54.244;10.074;2023-09-07T21:38:58;10.93;;;9.93;;
18503;SDS011;9381;54.244;10.074;2023-09-07T21:43:58;10.43;;;9.33;;
18503;SDS011;9381;54.244;10.074;2023-09-07T21:48:58;12.95;;;11.07;;
18503;SDS011;9381;54.244;10.074;2023-09-07T21:53:59;11.93;;;9.57;;
18503;SDS011;9381;54.244;10.074;2023-09-07T21:59:01;11.83;;;10.60;;
18503;SDS011;9381;54.244;10.074;2023-09-07T22:04:02;11.30;;;10.10;;
18503;SDS011;9381;54.244;10.074;2023-09-07T22:09:03;12.00;;;10.70;;
18503;SDS011;9381;54.244;10.074;2023-09-07T22:14:04;11.60;;;10.40;;
18503;SDS011;9381;54.244;10.074;2023-09-07T22:19:04;14.85;;;11.23;;
18503;SDS011;9381;54.244;10.074;2023-09-07T22:24:05;11.13;;;9.93;;
18503;SDS011;9381;54.244;10.074;2023-09-07T22:29:06;12.10;;;10.37;;
18503;SDS011;9381;54.244;10.074;2023-09-07T22:34:07;12.40;;;9.53;;
18503;SDS011;9381;54.244;10.074;2023-09-07T22:39:09;10.63;;;9.52;;
18503;SDS011;9381;54.244;10.074;2023-09-07T22:44:10;10.97;;;9.77;;
18503;SDS011;9381;54.244;10.074;2023-09-07T22:49:10;12.17;;;9.70;;
18503;SDS011;9381;54.244;10.074;2023-09-07T22:54:10;13.38;;;10.82;;
18503;SDS011;9381;54.244;10.074;2023-09-07T22:59:10;10.38;;;9.35;;
18503;SDS011;9381;54.244;10.074;2023-09-07T23:04:11;11.80;;;10.60;;
18503;SDS011;9381;54.244;10.074;2023-09-07T23:09:11;11.48;;;9.98;;
18503;SDS011;9381;54.244;10.074;2023-09-07T23:14:11;11.20;;;9.50;;
18503;SDS011;9381;54.244;10.074;2023-09-07T23:19:12;11.23;;;10.13;;
18503;SDS011;9381;54.244;10.074;2023-09-07T23:24:14;12.03;;;10.63;;
18503;SDS011;9381;54.244;10.074;2023-09-07T23:29:15;13.67;;;9.97;;
18503;SDS011;9381;54.244;10.074;2023-09-07T23:34:15;12.55;;;11.23;;
18503;SDS011;9381;54.244;10.074;2023-09-07T23:39:15;10.93;;;9.93;;
18503;SDS011;9381;54.244;10.074;2023-09-07T23:44:15;11.77;;;10.53;;
18503;SDS011;9381;54.244;10.074;2023-09-07T23:49:16;11.27;;;10.18;;
18503;SDS011;9381;54.244;10.074;2023-09-07T23:54:16;12.73;;;10.38;;
18503;SDS011;9381;54.244;10.074;2023-09-07T23:59:16;10.70;;;9.70;;
